createdAt,value
2022-10-10T06:13:51.113Z,5.79
2022-10-10T06:23:53.651Z,7.33
2022-10-10T06:33:55.739Z,7.53
2022-10-10T06:43:57.655Z,7.68
2022-10-10T06:53:59.861Z,7.72
2022-10-10T07:04:02.139Z,8.05
2022-10-10T07:14:04.029Z,8.63
2022-10-10T07:24:05.943Z,9.09
2022-10-10T07:34:07.903Z,9.91
2022-10-10T07:44:09.730Z,11.06
2022-10-10T07:54:11.645Z,10.88
2022-10-10T08:04:13.729Z,10.26
2022-10-10T08:14:15.591Z,9.82
2022-10-10T08:24:17.537Z,9.83
2022-10-10T08:34:19.572Z,9.95
2022-10-10T08:44:33.637Z,10.23
2022-10-10T08:54:39.119Z,10.48
2022-10-10T09:04:41.067Z,10.84
2022-10-10T09:14:59.768Z,11.11
2022-10-10T09:25:27.295Z,11.38
2022-10-10T09:35:34.774Z,11.69
2022-10-10T09:45:42.490Z,12.02
2022-10-10T09:55:47.041Z,12.18
2022-10-10T10:05:55.621Z,12.29
2022-10-10T10:16:03.393Z,12.37
2022-10-10T10:26:15.642Z,12.44
2022-10-10T10:36:46.337Z,12.54
2022-10-10T10:47:07.341Z,12.54
2022-10-10T10:58:00.109Z,12.56
2022-10-10T11:08:05.251Z,12.64
2022-10-10T11:18:16.164Z,12.82
2022-10-10T11:28:28.126Z,13.00
2022-10-10T11:38:36.309Z,13.06
2022-10-10T11:49:06.250Z,13.03
2022-10-10T11:59:34.048Z,13.09
2022-10-10T12:09:43.744Z,13.28
2022-10-10T12:19:48.695Z,13.35
2022-10-10T12:29:56.721Z,13.41
2022-10-10T12:40:08.033Z,13.48
2022-10-10T12:50:34.570Z,13.56
2022-10-10T13:00:45.328Z,13.59
2022-10-10T13:11:02.695Z,13.69
2022-10-10T13:21:09.028Z,13.73
2022-10-10T13:31:13.974Z,13.70
2022-10-10T13:41:20.968Z,13.78
2022-10-10T13:51:42.312Z,13.76
2022-10-10T14:12:43.114Z,13.69
2022-10-10T14:22:44.988Z,13.59
2022-10-10T14:32:47.013Z,13.53
2022-10-10T14:42:49.262Z,13.44
2022-10-10T14:52:51.276Z,13.26
2022-10-10T15:02:53.207Z,13.05
2022-10-10T15:12:55.479Z,12.83
2022-10-10T15:23:06.045Z,12.45
2022-10-10T15:33:08.722Z,12.18
2022-10-10T15:43:10.844Z,11.93
2022-10-10T15:53:12.876Z,11.51
2022-10-10T16:03:14.936Z,11.23
2022-10-10T16:13:18.916Z,10.87
2022-10-10T16:23:20.843Z,10.45
2022-10-10T16:33:23.047Z,10.12
2022-10-10T16:43:25.115Z,9.83
2022-10-10T16:53:27.554Z,9.47
2022-10-10T17:03:29.814Z,9.14
2022-10-10T17:13:32.003Z,9.15
2022-10-10T17:23:34.033Z,9.11
2022-10-10T17:33:37.981Z,8.81
2022-10-10T17:43:40.887Z,8.52
2022-10-10T17:53:44.808Z,8.32
2022-10-10T18:03:48.452Z,8.07
2022-10-10T18:13:51.551Z,8.08
2022-10-10T18:23:54.541Z,8.18
2022-10-10T18:33:56.953Z,8.10
2022-10-10T18:43:59.341Z,8.04
2022-10-10T18:54:08.614Z,8.04
2022-10-10T19:04:10.879Z,8.08
2022-10-10T19:14:17.537Z,8.04
2022-10-10T19:24:29.622Z,8.09
2022-10-10T19:34:32.803Z,8.01
2022-10-10T19:44:35.337Z,7.98
2022-10-10T19:54:37.327Z,7.78
2022-10-10T20:04:39.549Z,7.57
2022-10-10T20:14:41.683Z,7.67
2022-10-10T20:24:43.955Z,7.84
2022-10-10T20:34:47.251Z,7.85
2022-10-10T20:44:49.998Z,8.04
2022-10-10T20:54:52.810Z,8.10
2022-10-10T21:04:54.688Z,8.14
2022-10-10T21:15:01.810Z,8.09
2022-10-10T21:25:04.167Z,8.08
2022-10-10T21:35:06.301Z,7.88
2022-10-10T21:45:09.016Z,7.83
2022-10-10T21:55:10.860Z,7.69
2022-10-10T22:05:13.922Z,7.66
2022-10-10T22:15:16.034Z,7.60
2022-10-10T22:25:18.972Z,7.56
2022-10-10T22:35:20.834Z,7.43
2022-10-10T22:45:23.458Z,7.40
2022-10-10T22:55:25.353Z,7.40
2022-10-10T23:05:27.259Z,7.27
2022-10-10T23:15:29.208Z,7.32
2022-10-10T23:25:31.078Z,7.27
2022-10-10T23:35:33.160Z,7.03
2022-10-10T23:45:35.106Z,6.91
2022-10-10T23:55:37.034Z,6.89
